createdAt,value
2019-02-15T00:00:42.464Z,99.99
2019-02-15T00:01:42.975Z,99.99
2019-02-15T00:02:42.467Z,99.99
2019-02-15T00:03:42.865Z,99.99
2019-02-15T00:04:42.759Z,99.99
2019-02-15T00:05:42.653Z,99.99
2019-02-15T00:07:42.854Z,99.99
2019-02-15T00:08:42.626Z,99.99
2019-02-15T00:09:42.420Z,99.99
2019-02-15T00:10:42.404Z,99.99
2019-02-15T00:11:43.109Z,99.99
2019-02-15T00:12:42.807Z,99.99
2019-02-15T00:13:43.385Z,99.99
2019-02-15T00:15:42.360Z,99.99
2019-02-15T00:16:42.361Z,99.99
2019-02-15T00:17:42.569Z,99.99
2019-02-15T00:18:42.333Z,99.99
2019-02-15T00:19:42.539Z,99.99
2019-02-15T00:20:42.537Z,99.99
2019-02-15T00:21:42.728Z,99.99
2019-02-15T00:22:42.333Z,99.99
2019-02-15T00:25:43.925Z,99.99
2019-02-15T00:27:42.293Z,99.99
2019-02-15T00:28:42.920Z,99.99
2019-02-15T00:29:42.478Z,99.99
2019-02-15T00:32:42.766Z,99.99
2019-02-15T00:33:42.675Z,99.99
2019-02-15T00:34:42.981Z,99.99
2019-02-15T00:35:42.659Z,99.99
2019-02-15T00:36:42.219Z,99.99
2019-02-15T00:38:42.824Z,99.99
2019-02-15T00:39:42.419Z,99.99
2019-02-15T00:40:42.199Z,99.99
2019-02-15T00:43:42.399Z,99.99
2019-02-15T00:45:42.189Z,99.99
2019-02-15T00:46:42.382Z,99.99
2019-02-15T00:47:42.582Z,99.99
2019-02-15T00:49:42.162Z,99.99
2019-02-15T00:50:42.139Z,99.99
2019-02-15T00:51:42.143Z,99.99
2019-02-15T00:52:42.134Z,99.99
2019-02-15T00:53:42.525Z,99.99
2019-02-15T00:54:42.123Z,99.99
2019-02-15T00:55:42.114Z,99.99
2019-02-15T00:57:42.409Z,99.99
2019-02-15T00:58:43.003Z,99.99
2019-02-15T00:59:42.281Z,99.99
2019-02-15T01:00:42.484Z,99.99
2019-02-15T01:01:42.460Z,99.99
2019-02-15T01:02:42.076Z,99.99
2019-02-15T01:03:42.077Z,99.99
2019-02-15T01:04:42.076Z,99.99
2019-02-15T01:05:42.245Z,99.99
2019-02-15T01:06:42.452Z,99.99
2019-02-15T01:08:42.019Z,99.99
2019-02-15T01:09:42.735Z,99.99
2019-02-15T01:10:42.032Z,99.99
2019-02-15T01:11:42.431Z,99.99
2019-02-15T01:12:42.198Z,99.99
2019-02-15T01:13:42.708Z,99.99
2019-02-15T01:14:41.991Z,99.99
2019-02-15T01:15:42.906Z,99.99
2019-02-15T01:16:41.990Z,99.99
2019-02-15T01:19:41.956Z,99.99
2019-02-15T01:20:42.877Z,99.99
2019-02-15T01:22:41.958Z,99.99
2019-02-15T01:25:42.433Z,99.99
2019-02-15T01:26:41.934Z,99.99
2019-02-15T01:28:42.241Z,99.99
2019-02-15T01:29:42.122Z,99.99
2019-02-15T01:31:42.125Z,99.99
2019-02-15T01:32:41.906Z,99.99
2019-02-15T01:35:42.193Z,99.99
2019-02-15T01:36:41.875Z,99.99
2019-02-15T01:37:42.374Z,99.99
2019-02-15T01:38:42.055Z,99.99
2019-02-15T01:39:42.564Z,99.99
2019-02-15T01:40:41.862Z,99.99
2019-02-15T01:42:44.065Z,99.99
2019-02-15T01:43:42.221Z,99.99
2019-02-15T01:46:42.228Z,99.99
2019-02-15T01:48:41.807Z,99.99
2019-02-15T01:49:41.786Z,99.99
2019-02-15T01:51:41.778Z,99.99
2019-02-15T01:53:41.783Z,99.99
2019-02-15T01:57:42.155Z,99.99
2019-02-15T01:58:41.729Z,99.99
2019-02-15T01:59:41.728Z,99.99
2019-02-15T02:00:41.735Z,99.99
2019-02-15T02:01:41.706Z,99.99
2019-02-15T02:02:42.112Z,99.99
2019-02-15T02:03:41.923Z,99.99
2019-02-15T02:04:42.092Z,99.99
2019-02-15T02:07:41.683Z,99.99
2019-02-15T02:08:41.675Z,99.99
2019-02-15T02:10:42.057Z,99.99
2019-02-15T02:11:41.862Z,99.99
2019-02-15T02:13:49.257Z,99.99
2019-02-15T02:15:41.635Z,99.99
2019-02-15T02:16:41.623Z,99.99
2019-02-15T02:17:41.632Z,99.99
2019-02-15T02:18:41.811Z,99.99
2019-02-15T02:20:41.610Z,99.99
2019-02-15T02:21:41.612Z,99.99
2019-02-15T02:22:41.987Z,99.99
2019-02-15T02:24:41.799Z,99.99
2019-02-15T02:25:41.988Z,99.99
2019-02-15T02:27:41.582Z,99.99
2019-02-15T02:28:41.569Z,99.99
2019-02-15T02:30:41.760Z,99.99
2019-02-15T02:31:41.526Z,99.99
2019-02-15T02:34:42.258Z,99.99
2019-02-15T02:35:41.532Z,99.99
2019-02-15T02:36:41.723Z,99.99
2019-02-15T02:37:41.516Z,99.99
2019-02-15T02:39:41.823Z,99.99
2019-02-15T02:40:44.506Z,99.99
2019-02-15T02:41:41.895Z,99.99
2019-02-15T02:43:41.475Z,99.99
2019-02-15T02:44:41.659Z,99.99
2019-02-15T02:45:41.663Z,99.99
2019-02-15T02:46:41.440Z,99.99
2019-02-15T02:47:41.655Z,99.99
2019-02-15T02:48:41.431Z,99.99
2019-02-15T02:49:41.436Z,99.99
2019-02-15T02:50:41.654Z,99.99
2019-02-15T02:51:42.224Z,99.99
2019-02-15T02:53:41.625Z,99.99
2019-02-15T02:54:41.623Z,99.99
2019-02-15T02:55:41.379Z,99.99
2019-02-15T02:56:41.874Z,99.99
2019-02-15T02:58:41.387Z,99.99
2019-02-15T02:59:41.985Z,99.99
2019-02-15T03:00:41.774Z,99.99
2019-02-15T03:01:41.351Z,99.99
2019-02-15T03:02:41.758Z,99.99
2019-02-15T03:03:41.962Z,99.99
2019-02-15T03:04:42.353Z,99.99
2019-02-15T03:06:41.347Z,99.99
2019-02-15T03:07:41.532Z,99.99
2019-02-15T03:08:41.297Z,99.99
2019-02-15T03:09:41.292Z,99.99
2019-02-15T03:10:41.323Z,99.99
2019-02-15T03:11:41.806Z,99.99
2019-02-15T03:13:41.486Z,99.99
2019-02-15T03:14:41.498Z,99.99
2019-02-15T03:16:41.255Z,99.99
2019-02-15T03:17:41.250Z,99.99
2019-02-15T03:18:41.738Z,99.99
2019-02-15T03:19:41.650Z,99.99
2019-02-15T03:20:41.666Z,99.99
2019-02-15T03:21:41.435Z,99.99
2019-02-15T03:22:41.223Z,99.99
2019-02-15T03:23:41.409Z,99.99
2019-02-15T03:24:41.214Z,99.99
2019-02-15T03:25:41.241Z,99.99
2019-02-15T03:27:41.191Z,99.99
2019-02-15T03:28:41.598Z,99.99
2019-02-15T03:29:41.407Z,99.99
2019-02-15T03:30:41.502Z,99.99
2019-02-15T03:31:41.381Z,99.99
2019-02-15T03:32:41.168Z,99.99
2019-02-15T03:34:41.571Z,99.99
2019-02-15T03:36:41.352Z,99.99
2019-02-15T03:37:41.145Z,99.99
2019-02-15T03:38:41.130Z,99.99
2019-02-15T03:39:41.116Z,99.99
2019-02-15T03:40:41.115Z,99.99
2019-02-15T03:41:41.715Z,99.99
2019-02-15T03:43:41.402Z,99.99
2019-02-15T03:44:42.191Z,99.99
2019-02-15T03:45:41.074Z,99.99
2019-02-15T03:47:41.062Z,99.99
2019-02-15T03:49:41.057Z,99.99
2019-02-15T03:50:41.062Z,99.99
2019-02-15T03:51:41.249Z,99.99
2019-02-15T03:52:41.029Z,99.99
2019-02-15T03:53:41.023Z,99.99
2019-02-15T03:54:41.228Z,99.99
2019-02-15T03:57:40.996Z,99.99
2019-02-15T03:58:41.204Z,99.99
2019-02-15T03:59:41.606Z,99.99
2019-02-15T04:00:41.173Z,99.99
2019-02-15T04:01:41.767Z,99.99
2019-02-15T04:02:41.189Z,99.99
2019-02-15T04:04:41.247Z,99.99
2019-02-15T04:05:41.628Z,99.99
2019-02-15T04:06:41.157Z,99.99
2019-02-15T04:09:40.908Z,99.99
2019-02-15T04:10:40.909Z,99.99
2019-02-15T04:11:41.106Z,99.99
2019-02-15T04:12:41.309Z,99.99
2019-02-15T04:14:41.479Z,99.99
2019-02-15T04:17:41.467Z,99.99
2019-02-15T04:18:41.244Z,99.99
2019-02-15T04:19:41.142Z,99.99
2019-02-15T04:20:41.065Z,99.99
2019-02-15T04:21:40.833Z,99.99
2019-02-15T04:23:41.208Z,99.99
2019-02-15T04:24:41.524Z,99.99
2019-02-15T04:25:41.018Z,99.99
2019-02-15T04:28:41.474Z,99.99
2019-02-15T04:29:40.773Z,99.99
2019-02-15T04:30:40.775Z,99.99
2019-02-15T04:32:40.993Z,99.99
2019-02-15T04:33:40.767Z,99.99
2019-02-15T04:34:40.757Z,99.99
2019-02-15T04:35:41.348Z,99.99
2019-02-15T04:37:41.408Z,99.99
2019-02-15T04:38:40.921Z,99.99
2019-02-15T04:40:40.695Z,99.99
2019-02-15T04:42:40.698Z,99.99
2019-02-15T04:43:40.873Z,99.99
2019-02-15T04:45:40.893Z,99.99
2019-02-15T04:46:40.663Z,99.99
2019-02-15T04:47:40.666Z,99.99
2019-02-15T04:48:40.844Z,99.99
2019-02-15T04:52:41.437Z,99.99
2019-02-15T04:53:40.616Z,99.99
2019-02-15T04:54:40.993Z,99.99
2019-02-15T04:55:40.608Z,99.99
2019-02-15T04:56:41.113Z,99.99
2019-02-15T04:57:40.781Z,99.99
2019-02-15T04:59:40.771Z,99.99
2019-02-15T05:00:40.963Z,99.99
2019-02-15T05:02:41.458Z,99.99
2019-02-15T05:04:40.539Z,99.99
2019-02-15T05:05:42.038Z,99.99
2019-02-15T05:06:40.509Z,99.99
2019-02-15T05:07:40.521Z,99.99
2019-02-15T05:09:40.803Z,99.99
2019-02-15T05:10:40.555Z,99.99
2019-02-15T05:11:40.470Z,99.99
2019-02-15T05:12:40.472Z,99.99
2019-02-15T05:13:40.485Z,99.99
2019-02-15T05:16:40.471Z,99.99
2019-02-15T05:18:40.595Z,99.99
2019-02-15T05:19:40.457Z,99.99
2019-02-15T05:22:40.830Z,99.99
2019-02-15T05:24:40.405Z,99.99
2019-02-15T05:25:40.585Z,99.99
2019-02-15T05:26:40.987Z,99.99
2019-02-15T05:27:40.371Z,99.99
2019-02-15T05:28:40.359Z,99.99
2019-02-15T05:30:40.353Z,99.99
2019-02-15T05:31:40.559Z,99.99
2019-02-15T05:33:40.328Z,99.99
2019-02-15T05:34:40.630Z,99.99
2019-02-15T05:35:40.330Z,99.99
2019-02-15T05:36:40.324Z,99.99
2019-02-15T05:37:40.299Z,99.99
2019-02-15T05:38:41.353Z,99.99
2019-02-15T05:40:40.584Z,99.99
2019-02-15T05:41:40.979Z,99.99
2019-02-15T05:42:40.278Z,99.99
2019-02-15T05:43:40.462Z,99.99
2019-02-15T05:44:40.235Z,99.99
2019-02-15T05:45:40.753Z,99.99
2019-02-15T05:46:40.230Z,99.99
2019-02-15T05:47:40.948Z,99.99
2019-02-15T05:48:40.422Z,99.99
2019-02-15T05:49:41.017Z,99.99
2019-02-15T05:52:41.318Z,99.99
2019-02-15T05:53:40.174Z,99.99
2019-02-15T05:54:40.193Z,99.99
2019-02-15T05:56:40.477Z,99.99
2019-02-15T05:58:40.463Z,99.99
2019-02-15T05:59:40.357Z,99.99
2019-02-15T06:00:40.357Z,99.99
2019-02-15T06:01:40.376Z,99.99
2019-02-15T06:05:40.102Z,99.99
2019-02-15T06:07:40.295Z,99.99
2019-02-15T06:08:40.079Z,99.99
2019-02-15T06:10:40.058Z,99.99
2019-02-15T06:11:40.257Z,99.99
2019-02-15T06:12:40.064Z,99.99
2019-02-15T06:14:40.126Z,99.99
2019-02-15T06:16:40.042Z,99.99
2019-02-15T06:17:40.219Z,99.99
2019-02-15T06:18:40.632Z,99.99
2019-02-15T06:19:40.002Z,99.99
2019-02-15T06:20:40.190Z,99.99
2019-02-15T06:21:40.005Z,99.99
2019-02-15T06:22:39.979Z,99.99
2019-02-15T06:23:39.968Z,99.99
2019-02-15T06:24:39.969Z,99.99
2019-02-15T06:26:39.953Z,99.99
2019-02-15T06:27:40.154Z,99.99
2019-02-15T06:28:39.940Z,99.99
2019-02-15T06:29:40.141Z,99.99
2019-02-15T06:30:40.423Z,99.99
2019-02-15T06:31:40.121Z,99.99
2019-02-15T06:32:40.113Z,99.99
2019-02-15T06:35:40.272Z,99.99
2019-02-15T06:36:39.886Z,99.99
2019-02-15T06:37:39.889Z,99.99
2019-02-15T06:38:40.068Z,99.99
2019-02-15T06:39:39.879Z,99.99
2019-02-15T06:40:39.851Z,99.99
2019-02-15T06:41:40.046Z,99.99
2019-02-15T06:43:40.037Z,99.99
2019-02-15T06:45:40.071Z,99.99
2019-02-15T06:46:39.838Z,99.99
2019-02-15T06:47:39.796Z,99.99
2019-02-15T06:48:39.794Z,99.99
2019-02-15T06:49:39.797Z,99.99
2019-02-15T06:50:39.790Z,99.99
2019-02-15T06:51:40.008Z,99.99
2019-02-15T06:52:40.374Z,99.99
2019-02-15T06:53:39.771Z,99.99
2019-02-15T06:54:39.761Z,99.99
2019-02-15T06:55:40.161Z,99.99
2019-02-15T06:56:40.045Z,99.99
2019-02-15T06:57:41.368Z,99.99
2019-02-15T06:58:45.506Z,99.99
2019-02-15T06:59:39.704Z,99.99
2019-02-15T07:01:39.905Z,99.99
2019-02-15T07:02:39.906Z,99.99
2019-02-15T07:04:39.686Z,99.99
2019-02-15T07:05:39.704Z,99.99
2019-02-15T07:06:39.887Z,99.99
2019-02-15T07:07:39.671Z,99.99
2019-02-15T07:08:40.072Z,99.99
2019-02-15T07:09:39.846Z,99.99
2019-02-15T07:10:40.245Z,99.99
2019-02-15T07:11:39.646Z,99.99
2019-02-15T07:12:39.852Z,99.99
2019-02-15T07:13:39.640Z,99.99
2019-02-15T07:14:39.821Z,99.99
2019-02-15T07:15:39.800Z,99.99
2019-02-15T07:16:39.605Z,99.99
2019-02-15T07:17:40.078Z,99.99
2019-02-15T07:18:39.593Z,99.99
2019-02-15T07:19:39.770Z,99.99
2019-02-15T07:20:39.567Z,99.99
2019-02-15T07:21:39.787Z,99.99
2019-02-15T07:22:39.556Z,99.99
2019-02-15T07:23:39.955Z,99.99
2019-02-15T07:24:40.345Z,99.99
2019-02-15T07:27:39.512Z,99.99
2019-02-15T07:28:40.430Z,99.99
2019-02-15T07:29:39.714Z,99.99
2019-02-15T07:30:39.807Z,99.99
2019-02-15T07:31:39.696Z,99.99
2019-02-15T07:32:39.487Z,99.99
2019-02-15T07:33:39.859Z,99.99
2019-02-15T07:34:39.470Z,99.99
2019-02-15T07:35:40.069Z,99.99
2019-02-15T07:37:39.456Z,99.99
2019-02-15T07:38:39.662Z,99.99
2019-02-15T07:39:39.664Z,99.99
2019-02-15T07:40:40.437Z,99.99
2019-02-15T07:41:39.843Z,99.99
2019-02-15T07:43:40.111Z,99.99
2019-02-15T07:44:39.604Z,99.99
2019-02-15T07:45:42.803Z,99.99
2019-02-15T07:46:39.584Z,99.99
2019-02-15T07:47:39.382Z,99.99
2019-02-15T07:48:39.550Z,99.99
2019-02-15T07:50:39.354Z,99.99
2019-02-15T07:51:40.056Z,99.99
2019-02-15T07:52:39.550Z,99.99
2019-02-15T07:53:39.334Z,99.99
2019-02-15T07:54:40.140Z,99.99
2019-02-15T07:55:39.737Z,99.99
2019-02-15T07:56:39.522Z,99.99
2019-02-15T07:57:39.309Z,99.99
2019-02-15T07:59:39.505Z,99.99
2019-02-15T08:01:39.307Z,99.99
2019-02-15T08:02:39.269Z,99.99
2019-02-15T08:03:39.290Z,99.99
2019-02-15T08:05:39.245Z,99.99
2019-02-15T08:07:39.256Z,99.99
2019-02-15T08:08:39.728Z,99.99
2019-02-15T08:10:40.031Z,99.99
2019-02-15T08:12:39.401Z,99.99
2019-02-15T08:13:39.193Z,99.99
2019-02-15T08:14:39.390Z,99.99
2019-02-15T08:16:39.178Z,99.99
2019-02-15T08:17:39.177Z,99.99
2019-02-15T08:18:39.363Z,99.99
2019-02-15T08:19:39.171Z,99.99
2019-02-15T08:22:39.758Z,99.99
2019-02-15T08:23:39.137Z,99.99
2019-02-15T08:25:39.334Z,99.99
2019-02-15T08:26:39.115Z,99.99
2019-02-15T08:27:39.327Z,99.99
2019-02-15T08:28:39.106Z,99.99
2019-02-15T08:29:39.397Z,99.99
2019-02-15T08:30:39.306Z,99.99
2019-02-15T08:33:39.470Z,99.99
2019-02-15T08:34:39.058Z,99.99
2019-02-15T08:35:39.063Z,99.99
2019-02-15T08:36:39.257Z,99.99
2019-02-15T08:37:39.553Z,99.99
2019-02-15T08:38:39.047Z,99.99
2019-02-15T08:40:39.047Z,99.99
2019-02-15T08:41:39.020Z,99.99
2019-02-15T08:43:39.206Z,99.99
2019-02-15T08:44:39.011Z,99.99
2019-02-15T08:45:39.396Z,99.99
2019-02-15T08:46:38.992Z,99.99
2019-02-15T08:48:45.927Z,99.99
2019-02-15T08:49:39.389Z,99.99
2019-02-15T08:51:39.362Z,99.99
2019-02-15T08:54:39.146Z,99.99
2019-02-15T08:55:39.400Z,99.99
2019-02-15T08:56:39.131Z,99.99
2019-02-15T08:57:39.651Z,99.99
2019-02-15T08:58:39.147Z,98.92
2019-02-15T08:59:39.130Z,99.99
2019-02-15T09:01:39.128Z,99.99
2019-02-15T09:02:38.891Z,99.16
2019-02-15T09:03:38.893Z,99.99
2019-02-15T09:04:38.901Z,97.92
2019-02-15T09:06:39.101Z,93.23
2019-02-15T09:08:38.868Z,87.95
2019-02-15T09:09:39.387Z,87.76
2019-02-15T09:10:39.068Z,84.19
2019-02-15T09:11:38.861Z,83.71
2019-02-15T09:12:39.048Z,83.94
2019-02-15T09:13:39.065Z,84.19
2019-02-15T09:14:39.352Z,84.66
2019-02-15T09:15:39.446Z,83.71
2019-02-15T09:16:38.830Z,81.66
2019-02-15T09:18:38.826Z,78.27
2019-02-15T09:20:39.119Z,75.99
2019-02-15T09:21:38.807Z,74.21
2019-02-15T09:22:39.401Z,72.88
2019-02-15T09:23:39.428Z,70.97
2019-02-15T09:24:38.784Z,71.55
2019-02-15T09:27:38.978Z,71.07
2019-02-15T09:28:38.783Z,71.93
2019-02-15T09:31:38.974Z,70.44
2019-02-15T09:32:38.757Z,69.96
2019-02-15T09:33:38.951Z,70.06
2019-02-15T09:34:39.655Z,70.63
2019-02-15T09:35:39.152Z,70.06
2019-02-15T09:38:39.454Z,67.42
2019-02-15T09:40:38.748Z,67.99
2019-02-15T09:43:38.696Z,66.85
2019-02-15T09:45:38.683Z,66.94
2019-02-15T09:46:38.879Z,67.99
2019-02-15T09:47:38.682Z,67.52
2019-02-15T09:48:39.221Z,66.66
2019-02-15T09:49:38.895Z,68.18
2019-02-15T09:50:38.686Z,67.80
2019-02-15T09:52:38.664Z,68.09
2019-02-15T09:53:39.181Z,67.80
2019-02-15T09:54:39.088Z,69.14
2019-02-15T09:55:39.168Z,69.04
2019-02-15T09:57:38.656Z,69.62
2019-02-15T09:59:38.860Z,66.56
2019-02-15T10:01:38.835Z,65.83
2019-02-15T10:02:39.531Z,65.83
2019-02-15T10:03:38.634Z,65.93
2019-02-15T10:04:38.811Z,64.69
2019-02-15T10:05:39.218Z,64.69
2019-02-15T10:06:38.920Z,64.69
2019-02-15T10:07:39.616Z,64.21
2019-02-15T10:08:38.622Z,63.54
2019-02-15T10:11:38.794Z,63.73
2019-02-15T10:12:38.795Z,63.73
2019-02-15T10:16:38.575Z,64.34
2019-02-15T10:17:39.198Z,65.01
2019-02-15T10:19:38.557Z,66.22
2019-02-15T10:21:38.563Z,64.81
2019-02-15T10:24:38.555Z,66.50
2019-02-15T10:25:38.855Z,67.07
2019-02-15T10:26:38.721Z,67.49
2019-02-15T10:27:38.530Z,66.02
2019-02-15T10:28:38.534Z,64.43
2019-02-15T10:29:38.535Z,63.76
2019-02-15T10:30:38.554Z,64.25
2019-02-15T10:31:38.526Z,64.43
2019-02-15T10:32:38.918Z,64.05
2019-02-15T10:33:38.543Z,63.57
2019-02-15T10:34:38.522Z,64.53
2019-02-15T10:36:38.504Z,63.99
2019-02-15T10:37:38.896Z,63.39
2019-02-15T10:38:38.507Z,64.34
2019-02-15T10:39:38.520Z,65.58
2019-02-15T10:40:38.719Z,64.62
2019-02-15T10:41:38.507Z,64.65
2019-02-15T10:43:39.414Z,64.53
2019-02-15T10:44:38.938Z,64.34
2019-02-15T10:45:38.683Z,63.42
2019-02-15T10:46:39.186Z,63.60
2019-02-15T10:47:38.473Z,62.84
2019-02-15T10:48:38.477Z,63.03
2019-02-15T10:49:39.374Z,63.23
2019-02-15T10:52:38.514Z,63.32
2019-02-15T10:53:38.679Z,63.32
2019-02-15T10:54:38.665Z,62.27
2019-02-15T10:56:38.859Z,63.42
2019-02-15T10:57:38.438Z,61.69
2019-02-15T10:58:38.442Z,61.63
2019-02-15T10:59:38.624Z,61.63
2019-02-15T11:00:38.452Z,60.68
2019-02-15T11:01:38.448Z,60.87
2019-02-15T11:02:38.636Z,61.63
2019-02-15T11:03:38.422Z,60.96
2019-02-15T11:04:38.689Z,60.96
2019-02-15T11:05:38.436Z,60.96
2019-02-15T11:06:38.420Z,62.01
2019-02-15T11:07:38.419Z,60.68
2019-02-15T11:08:38.400Z,60.10
2019-02-15T11:09:38.602Z,60.01
2019-02-15T11:10:38.394Z,60.20
2019-02-15T11:11:38.407Z,60.10
2019-02-15T11:12:38.601Z,60.58
2019-02-15T11:13:38.409Z,60.10
2019-02-15T11:14:38.404Z,60.39
2019-02-15T11:15:38.383Z,60.49
2019-02-15T11:16:46.812Z,60.20
2019-02-15T11:17:38.580Z,59.81
2019-02-15T11:18:38.585Z,59.91
2019-02-15T11:19:38.356Z,59.81
2019-02-15T11:20:38.562Z,59.56
2019-02-15T11:21:38.355Z,59.37
2019-02-15T11:22:38.362Z,60.61
2019-02-15T11:23:38.345Z,59.18
2019-02-15T11:24:38.345Z,59.75
2019-02-15T11:25:38.355Z,59.56
2019-02-15T11:26:38.559Z,59.94
2019-02-15T11:27:38.562Z,59.75
2019-02-15T11:28:38.333Z,59.18
2019-02-15T11:29:38.345Z,59.94
2019-02-15T11:30:38.313Z,60.23
2019-02-15T11:31:38.321Z,60.52
2019-02-15T11:32:38.327Z,62.14
2019-02-15T11:33:38.305Z,63.93
2019-02-15T11:34:38.301Z,62.59
2019-02-15T11:35:38.308Z,61.72
2019-02-15T11:36:38.310Z,61.54
2019-02-15T11:37:38.493Z,63.39
2019-02-15T11:38:38.283Z,63.57
2019-02-15T11:39:38.491Z,60.99
2019-02-15T11:40:38.278Z,60.80
2019-02-15T11:41:38.469Z,60.61
2019-02-15T11:42:38.477Z,59.94
2019-02-15T11:43:38.287Z,60.13
2019-02-15T11:44:38.257Z,59.75
2019-02-15T11:45:38.255Z,61.38
2019-02-15T11:46:38.450Z,60.80
2019-02-15T11:47:38.247Z,60.90
2019-02-15T11:48:38.261Z,60.90
2019-02-15T11:49:38.241Z,60.23
2019-02-15T11:50:38.237Z,59.78
2019-02-15T11:51:38.247Z,60.06
2019-02-15T11:52:38.222Z,60.42
2019-02-15T11:53:38.219Z,61.09
2019-02-15T11:54:38.222Z,62.04
2019-02-15T11:55:38.410Z,60.52
2019-02-15T11:56:38.222Z,60.23
2019-02-15T11:57:38.212Z,60.04
2019-02-15T11:58:38.435Z,59.56
2019-02-15T11:59:38.413Z,59.27
2019-02-15T12:00:38.195Z,59.18
2019-02-15T12:01:38.204Z,59.18
2019-02-15T12:02:38.186Z,58.92
2019-02-15T12:03:38.184Z,58.83
2019-02-15T12:04:38.379Z,58.06
2019-02-15T12:05:38.199Z,58.22
2019-02-15T12:06:38.176Z,59.18
2019-02-15T12:07:38.177Z,59.27
2019-02-15T12:08:38.363Z,58.44
2019-02-15T12:09:38.149Z,58.34
2019-02-15T12:10:38.151Z,58.34
2019-02-15T12:11:38.154Z,59.30
2019-02-15T12:12:38.147Z,59.18
2019-02-15T12:13:38.152Z,60.06
2019-02-15T12:14:38.143Z,59.88
2019-02-15T12:15:38.332Z,60.90
2019-02-15T12:16:38.726Z,60.52
2019-02-15T12:17:38.141Z,61.28
2019-02-15T12:18:38.113Z,62.90
2019-02-15T12:19:38.112Z,63.96
2019-02-15T12:20:38.120Z,63.57
2019-02-15T12:21:38.133Z,63.29
2019-02-15T12:22:38.100Z,61.57
2019-02-15T12:23:38.313Z,60.61
2019-02-15T12:24:38.092Z,60.42
2019-02-15T12:25:38.308Z,59.18
2019-02-15T12:26:38.090Z,59.37
2019-02-15T12:27:38.097Z,59.27
2019-02-15T12:28:38.286Z,59.20
2019-02-15T12:29:38.308Z,59.30
2019-02-15T12:30:38.114Z,60.16
2019-02-15T12:31:38.071Z,61.41
2019-02-15T12:32:38.063Z,60.55
2019-02-15T12:33:38.267Z,61.12
2019-02-15T12:34:38.066Z,61.88
2019-02-15T12:35:38.053Z,60.35
2019-02-15T12:36:38.059Z,60.83
2019-02-15T12:37:38.038Z,60.35
2019-02-15T12:38:38.046Z,59.88
2019-02-15T12:39:38.048Z,60.26
2019-02-15T12:40:38.055Z,60.83
2019-02-15T12:41:38.228Z,60.83
2019-02-15T12:42:38.092Z,60.83
2019-02-15T12:43:38.013Z,61.12
2019-02-15T12:44:38.027Z,60.16
2019-02-15T12:45:38.022Z,60.16
2019-02-15T12:46:38.018Z,59.97
2019-02-15T12:47:38.206Z,59.11
2019-02-15T12:48:38.076Z,59.78
2019-02-15T12:49:37.991Z,58.44
2019-02-15T12:50:38.011Z,58.54
2019-02-15T12:51:37.989Z,58.56
2019-02-15T12:52:37.979Z,58.37
2019-02-15T12:53:38.184Z,57.99
2019-02-15T12:54:37.970Z,58.66
2019-02-15T12:55:37.971Z,57.99
2019-02-15T12:56:37.966Z,58.86
2019-02-15T12:57:38.175Z,58.83
2019-02-15T12:58:37.961Z,60.83
2019-02-15T12:59:38.160Z,61.02
2019-02-15T13:00:37.951Z,61.22
2019-02-15T13:01:37.943Z,61.69
2019-02-15T13:02:37.954Z,61.02
2019-02-15T13:03:37.937Z,60.93
2019-02-15T13:04:37.956Z,60.16
2019-02-15T13:05:37.941Z,60.45
2019-02-15T13:06:38.138Z,60.74
2019-02-15T13:07:37.924Z,61.12
2019-02-15T13:08:38.124Z,60.06
2019-02-15T13:09:37.933Z,60.55
2019-02-15T13:10:37.914Z,61.98
2019-02-15T13:11:37.925Z,60.64
2019-02-15T13:12:37.913Z,61.22
2019-02-15T13:13:37.916Z,60.55
2019-02-15T13:14:37.917Z,60.26
2019-02-15T13:15:38.097Z,60.45
2019-02-15T13:16:37.907Z,58.34
2019-02-15T13:17:37.942Z,59.33
2019-02-15T13:18:37.895Z,60.06
2019-02-15T13:19:38.094Z,59.88
2019-02-15T13:20:38.083Z,59.69
2019-02-15T13:21:37.879Z,60.74
2019-02-15T13:22:38.088Z,59.11
2019-02-15T13:23:37.872Z,59.43
2019-02-15T13:24:37.861Z,59.78
2019-02-15T13:25:38.070Z,58.86
2019-02-15T13:26:37.868Z,58.95
2019-02-15T13:27:37.883Z,60.00
2019-02-15T13:28:37.870Z,60.77
2019-02-15T13:29:38.058Z,59.62
2019-02-15T13:30:37.860Z,58.76
2019-02-15T13:31:37.855Z,59.62
2019-02-15T13:32:37.841Z,60.38
2019-02-15T13:33:37.839Z,59.72
2019-02-15T13:34:37.853Z,59.43
2019-02-15T13:35:37.819Z,60.29
2019-02-15T13:36:37.819Z,60.16
2019-02-15T13:37:37.834Z,57.70
2019-02-15T13:38:37.816Z,57.70
2019-02-15T13:39:37.817Z,59.62
2019-02-15T13:40:38.009Z,57.32
2019-02-15T13:41:37.803Z,56.46
2019-02-15T13:42:37.981Z,55.34
2019-02-15T13:43:37.799Z,55.24
2019-02-15T13:44:37.812Z,54.86
2019-02-15T13:45:37.799Z,55.63
2019-02-15T13:46:37.802Z,55.82
2019-02-15T13:47:37.785Z,55.34
2019-02-15T13:48:37.985Z,55.63
2019-02-15T13:49:37.786Z,57.45
2019-02-15T13:50:37.786Z,57.32
2019-02-15T13:51:37.789Z,58.28
2019-02-15T13:52:37.768Z,59.62
2019-02-15T13:53:37.993Z,57.99
2019-02-15T13:54:38.555Z,58.28
2019-02-15T13:55:37.758Z,57.80
2019-02-15T13:56:37.756Z,57.42
2019-02-15T13:57:37.745Z,57.13
2019-02-15T13:58:37.744Z,58.37
2019-02-15T13:59:39.147Z,57.61
2019-02-15T14:00:37.966Z,57.13
2019-02-15T14:01:37.742Z,57.13
2019-02-15T14:02:37.747Z,57.99
2019-02-15T14:03:37.942Z,57.99
2019-02-15T14:04:37.721Z,57.80
2019-02-15T14:05:37.924Z,59.52
2019-02-15T14:06:37.933Z,60.38
2019-02-15T14:07:37.713Z,59.14
2019-02-15T14:08:37.716Z,60.19
2019-02-15T14:09:37.918Z,59.23
2019-02-15T14:10:37.902Z,60.48
2019-02-15T14:11:37.697Z,63.60
2019-02-15T14:12:37.693Z,63.32
2019-02-15T14:13:37.697Z,60.35
2019-02-15T14:14:37.686Z,59.20
2019-02-15T14:15:37.680Z,61.51
2019-02-15T14:16:37.678Z,60.93
2019-02-15T14:17:44.385Z,60.74
2019-02-15T14:18:37.679Z,61.69
2019-02-15T14:19:37.689Z,61.51
2019-02-15T14:20:37.677Z,61.12
2019-02-15T14:21:44.142Z,59.88
2019-02-15T14:22:37.682Z,60.26
2019-02-15T14:23:37.880Z,61.02
2019-02-15T14:24:37.660Z,60.45
2019-02-15T14:25:37.670Z,59.01
2019-02-15T14:26:37.658Z,58.09
2019-02-15T14:27:37.868Z,58.18
2019-02-15T14:28:37.645Z,59.62
2019-02-15T14:29:37.647Z,59.33
2019-02-15T14:30:37.666Z,59.81
2019-02-15T14:31:37.844Z,57.04
2019-02-15T14:32:37.642Z,56.46
2019-02-15T14:33:37.621Z,55.73
2019-02-15T14:34:37.821Z,55.63
2019-02-15T14:35:37.626Z,55.24
2019-02-15T14:36:37.610Z,57.06
2019-02-15T14:37:37.613Z,55.82
2019-02-15T14:38:37.619Z,56.75
2019-02-15T14:39:37.603Z,57.51
2019-02-15T14:40:37.598Z,59.72
2019-02-15T14:41:37.603Z,59.52
2019-02-15T14:42:37.591Z,59.88
2019-02-15T14:43:37.596Z,57.77
2019-02-15T14:44:37.583Z,57.90
2019-02-15T14:45:37.594Z,59.59
2019-02-15T14:46:37.609Z,57.51
2019-02-15T14:47:37.573Z,58.37
2019-02-15T14:48:37.581Z,56.17
2019-02-15T14:49:37.778Z,57.23
2019-02-15T14:50:37.564Z,56.84
2019-02-15T14:51:37.574Z,56.37
2019-02-15T14:52:37.567Z,57.70
2019-02-15T14:53:37.757Z,57.80
2019-02-15T14:54:37.557Z,58.06
2019-02-15T14:55:37.766Z,60.35
2019-02-15T14:56:37.556Z,60.26
2019-02-15T14:57:37.741Z,58.92
2019-02-15T14:58:37.749Z,58.34
2019-02-15T14:59:38.977Z,57.68
2019-02-15T15:00:37.751Z,58.25
2019-02-15T15:01:37.531Z,57.23
2019-02-15T15:02:37.556Z,56.37
2019-02-15T15:03:37.536Z,56.37
2019-02-15T15:04:37.531Z,56.37
2019-02-15T15:05:37.546Z,56.75
2019-02-15T15:06:37.723Z,58.86
2019-02-15T15:07:37.510Z,58.34
2019-02-15T15:08:37.518Z,60.35
2019-02-15T15:09:37.535Z,57.68
2019-02-15T15:10:37.510Z,55.98
2019-02-15T15:11:37.517Z,55.79
2019-02-15T15:12:37.694Z,55.69
2019-02-15T15:13:37.500Z,57.23
2019-02-15T15:14:37.504Z,55.41
2019-02-15T15:15:37.705Z,55.31
2019-02-15T15:16:37.515Z,55.69
2019-02-15T15:17:37.707Z,55.51
2019-02-15T15:18:37.673Z,54.93
2019-02-15T15:19:37.472Z,55.12
2019-02-15T15:20:37.478Z,54.38
2019-02-15T15:21:37.463Z,55.12
2019-02-15T15:22:37.486Z,55.22
2019-02-15T15:23:37.463Z,54.74
2019-02-15T15:24:37.458Z,55.51
2019-02-15T15:25:37.447Z,57.23
2019-02-15T15:26:37.646Z,59.23
2019-02-15T15:27:37.462Z,57.20
2019-02-15T15:28:37.463Z,55.79
2019-02-15T15:29:37.638Z,57.42
2019-02-15T15:30:37.642Z,58.83
2019-02-15T15:31:37.646Z,61.12
2019-02-15T15:32:37.427Z,58.15
2019-02-15T15:33:37.426Z,57.39
2019-02-15T15:34:37.620Z,57.10